Chico, TX (76431)

10:22 AM CST on December 28, 2014 (GMT -0600)
2 Miles South of Alvord | Change Station
CLOSE
Current Station
Personal Weather Station
Location: Alvord, TX
Elevation: 853 ft
Nearby Weather Stations

Elev 853 ft 33.33 °N, 97.70 °W | Updated 4 minutes ago

Partly Cloudy
Partly Cloudy
35.4 °F
Feels Like 35 °F
N
2.7
Wind Variable Wind from NNW

Today
High -- | Low -- °F
--% Chance of Precip.
Yesterday
High -- | Low -- °F
Precip. -- in
7:34 AM 5:31 PM
Waxing Crescent, 49% visible
Pressure 30.32 in
Visibility 10.0 miles
Clouds Clear
Windchill 35 °F
Dew Point 26 °F
Humidity 69%
Rainfall 0.00 in
Snow Depth Not available.
UV 2 out of 12
Pollen 10.70 out of 12
Air Quality Not available.
Flu Activity Not available.
METAR KXBP 281615Z AUTO 33003KT 10SM CLR 03/M02 A3032 RMK AO2 T00281016

More Conditions Fewer Conditions

Pressure 30.32 in
Visibility 10.0 miles
Clouds Clear
Windchill 35 °F
Dew Point 26 °F
Humidity 69%
Rainfall 0.00 in
Snow Depth Not available.
UV 2 out of 12
Pollen 10.70 out of 12
Air Quality Not available.
Flu Activity Not available.
METAR KXBP 281615Z AUTO 33003KT 10SM CLR 03/M02 A3032 RMK AO2 T00281016

More Conditions Fewer Conditions

Nowcast | as of 8:38 am CST on December 28, 2014

Light rain with occasional small sleet or snow will dampen a few locations south of a line from Comanche to Hillsboro to Athens through 10 am. Only trace amounts are expected and temperatures will remain above freezing. Otherwise...cold conditions will continue with temperatures generally holding in the 30s through 11 am. Areas west of a line from Comanche to Montague will see sun this morning...but the rest of north/central TX will remain mostly cloudy.

×

10-Day Weather Forecast

Almanac

Astronomy

Dec. 28, 2014 Rise Set
Actual Time
Civil Twilight
Nautical Twilight
Astronomical Twilight
Moon
Length of Visible Light
Length of Day
Tomorrow will be .
, % of the Moon is Illuminated

Today's Extremes

State Highs State Lows

Community

WunderPhotos

Upload Photos

1,781,323 photos uploaded!

WunderBlogs® & News

Nearby

Air Quality

  Air Quality AQ Index Pollutant
Not available.

Snow Depth

Station Depth Elevation

Earthquake Activity

City Distance Mag. Time & Date
Minimum magnitude displayed is 2.5.

Coastal Water Temperatures

Place Temperature

Nearby Weather Stations